Results by/Résultats par Info:[email protected] Phone: (613)260-0994

                                     K-TOWN TRIATHLON

                                  Sunday August 4th, 2002

                           Confederation Park, Kingston, Ontario

                          Overall Results - Long Course Triathlon

  -----FINAL----- ----------------------- ------------ -------------------- ----          2 km                     56.5 km                 15 km          Minus
                                                       Category                   ------SWIM + T1-------  ----------BIKE--------  -------RUN + T2-------- ------
    Pos     Time  Name                    City         Plc/Total Category     #    Cat  Ovr  Time  /100m   Cat Ovr Time  km/hr    Cat  Ovr  Time     km   Bridge
  ------  ------- ----------------------- ------------ -------------------- ----  ----------------------  ----------------------  ----------------------- ------
    1     2:55:05 Mike Neill              Kingston     1/3   Elite Men     118  2      2   30:35  1:32  2      2 1:26:44  39.1  2      3   57:47  3:52         
    2     2:56:04 Colin Ward              Kingston     2/3   Elite Men     157  3      9   32:10  1:37  3      5 1:29:19  38.0  1      1   54:35  3:39         
    3     2:57:29 Rick Hellard            Ottawa       1/28  M35 - 39      181  1      8   32:02  1:37  1      3 1:27:04  38.9  1      4   58:23  3:54         
    4     2:59:16 David Wilson            Brockville   1/22  M30 - 34      124  1     13   34:29  1:44  1      4 1:27:57  38.6  1      2   56:51  3:48         
    5     3:02:25 Ka-Yu Law               Kingston     3/3   Elite Men      92  1      1   30:24  1:32  1      1 1:26:26  39.2  3     19 1:05:35  4:23         
    6     3:06:19 Lisa Bentley            Caledon      1/4   Elite Women   109  1      4   31:22  1:35  1     29 1:35:18  35.6  1      6   59:40  3:59         
    7     3:07:37 Robin McGilp            Toronto      2/22  M30 - 34      187  2     16   35:26  1:47  2      6 1:29:48  37.8  2     12 1:02:24  4:10         
    8     3:08:54 Tony O'Keefe            Kanata       1/25  M40 - 44      102  4     24   36:54  1:51  2     14 1:31:45  36.9  1      7 1:00:16  4:02         
    9     3:10:14 Eric Hardy              Kingston     1/12  M25 - 29      183  2     20   36:13  1:49  1      7 1:30:34  37.4  2     13 1:03:27  4:14         
   10     3:10:28 Allan Faulds            Frankford    2/28  M35 - 39       79  4     19   36:11  1:49  7     28 1:35:15  35.6  2      5   59:03  3:57         
   11     3:10:41 Bruce Burns             Nepean       1/5   M50 - 54       66  1     33   37:45  1:54  1      9 1:30:44  37.4  1     11 1:02:13  4:09         
   12     3:10:44 Pat Turner              Kingston     2/25  M40 - 44      190  3     12   34:18  1:43  1     13 1:31:43  37.0  2     16 1:04:44  4:19         
   13     3:12:18 Pat McNeely             Bishopsmil   2/12  M25 - 29       50  5     40   38:30  1:56  2     12 1:31:40  37.0  1     10 1:02:09  4:09         
   14     3:12:25 Chris Milburn           Kingston     3/22  M30 - 34      128  3     32   37:44  1:54  3      8 1:30:44  37.4  3     14 1:03:58  4:16         
   15     3:12:26 Clive Morgan            Yarker       3/25  M40 - 44       34  1      3   31:06  1:34  4     21 1:34:03  36.1  3     21 1:07:18  4:30         
   16     3:13:36 Peter Doyle             Denver       3/28  M35 - 39       52  7     49   39:22  1:59  4     17 1:32:57  36.5  3      8 1:01:18  4:06         
   17     3:14:28 Jonathan Boocock        Ottawa       4/28  M35 - 39      175  6     44   38:49  1:57  6     20 1:33:57  36.1  4      9 1:01:44  4:07         
   18     3:16:47 Marie Danais            Hull         2/4   Elite Women   174  2      6   31:36  1:35  2     32 1:36:06  35.3  2     27 1:09:06  4:37         
   19     3:17:43 Kelly Brandson          Whitby       4/25  M40 - 44       82  5     27   37:22  1:53  3     15 1:32:43  36.6  4     23 1:07:39  4:31         
   20     3:20:11 Mike Wall               Orleans      5/28  M35 - 39       96  2     10   32:20  1:37  3     11 1:31:16  37.2  16    68 1:16:36  5:07         
   21     3:21:00 Julie Curwin            Kingston     3/4   Elite Women   133  3     14   34:40  1:44  3     37 1:36:58  35.0  3     31 1:09:24  4:38         
   22     3:21:11 Reid Van Melle          Ottawa       3/12  M25 - 29      143  4     39   38:29  1:56  3     26 1:35:08  35.6  3     22 1:07:34  4:31         
   23     3:22:05 Chris MacKnie           Ottawa       6/28  M35 - 39      149  19   114   45:22  2:17  2     10 1:31:14  37.2  5     18 1:05:29  4:22         
   24     3:22:09 Arvids Silis            North York   1/19  M45 - 49       39  1      5   31:26  1:35  14    96 1:45:48  32.0  1     17 1:04:57  4:20         
   25     3:22:54 Tracey Schefter         Denver       1/13  W35 - 39       28  3     56   39:57  2:00  1     44 1:38:15  34.5  1     15 1:04:42  4:19         
   26     3:23:24 James Young             Ottawa       5/25  M40 - 44       65  2      7   31:36  1:35  11    54 1:39:54  33.9  6     38 1:11:54  4:48         
   27     3:23:26 Duane Bryson            Trenton      4/22  M30 - 34      131  5     36   38:15  1:55  7     33 1:36:06  35.3  6     28 1:09:06  4:37         
   28     3:23:49 Darlene Hall            Toronto      4/4   Elite Women    99  4     15   35:12  1:46  4     43 1:38:15  34.5  4     35 1:10:23  4:42         
   29     3:24:48 Paul Monroe             Wolfe Isla   6/25  M40 - 44      111  6     41   38:34  1:56  8     41 1:37:42  34.7  5     25 1:08:33  4:35         
   30     3:25:31 Jeff Morris             Toronto      2/19  M45 - 49      132  9     53   39:43  2:00  1     16 1:32:49  36.5  4     48 1:13:00  4:52         
   31     3:25:50 Dave Newland            Ottawa       3/19  M45 - 49      129  6     43   38:47  1:57  2     23 1:34:16  36.0  3     46 1:12:49  4:52         
   32     3:26:29 Andrew Stronach         Montreal     4/12  M25 - 29      127  1     17   35:45  1:48  5     45 1:38:30  34.4  6     41 1:12:15  4:49         
   33     3:26:42 Stephen Hinton          Kingston     7/25  M40 - 44       20  7     47   39:08  1:58  5     24 1:34:25  35.9  9     49 1:13:10  4:53         
   34     3:27:02 Derek MacNeil           Streetsvil   5/22  M30 - 34       36  9     77   41:33  2:05  5     27 1:35:10  35.6  7     34 1:10:20  4:42         
   35     3:27:30 Adam Johnston           Richmond H   5/12  M25 - 29       75  3     25   37:08  1:52  7     60 1:41:15  33.5  4     29 1:09:07  4:37         
   36     3:27:34 Glenn Rossitter         Toronto      6/22  M30 - 34      170  14   112   44:56  2:15  4     22 1:34:13  36.0  5     24 1:08:26  4:34         
   37     3:28:25 Mark Davis              Peterborou   8/25  M40 - 44       45  9     58   39:58  2:00  6     30 1:35:32  35.5  8     47 1:12:55  4:52         
   38     3:29:01 Michael Teske           Aylmer       7/28  M35 - 39      176  5     37   38:20  1:55  13    58 1:40:25  33.8  7     33 1:10:16  4:42         
   39     3:29:25 Brian Parai             Ottawa       7/22  M30 - 34      137  12    90   42:35  2:08  10    53 1:39:53  33.9  4     20 1:06:57  4:28         
   40     3:29:28 Cheryl Iselmoe          Ottawa       2/13  W35 - 39       47  1     21   36:24  1:50  5     86 1:44:23  32.5  2     26 1:08:42  4:35         
   41     3:30:07 Steven Karlsson         Toronto      8/22  M30 - 34      125  4     35   38:06  1:55  9     51 1:39:43  34.0  8     43 1:12:19  4:50         
   42     3:31:10 Gordon Dilabio          Brockville   4/19  M45 - 49      117  13    86   42:23  2:08  4     36 1:36:28  35.1  2     44 1:12:20  4:50         
   43     3:31:13 Tim Doherty             Stratford    8/28  M35 - 39       26  3     11   32:38  1:38  18    84 1:43:52  32.6  10    58 1:14:44  4:59         
   44     3:31:47 Dave Dame               Seeley's B   6/12  M25 - 29        9  10   113   45:04  2:16  4     39 1:37:22  34.8  5     30 1:09:22  4:38         
   45     3:31:51 Mike Giles              Ottawa       9/25  M40 - 44      180  10    71   41:13  2:04  7     38 1:37:22  34.8  10    51 1:13:16  4:54         
   46     3:32:15 Dierdre Douglas         Toronto      1/16  W25 - 29      179  4     42   38:38  1:56  2     57 1:40:12  33.8  3     53 1:13:25  4:54         
   47     3:33:01 Tim Gillespe            Kingston     1/2   M20 - 24      116  1     29   37:37  1:53  2     89 1:44:36  32.4  1     36 1:10:49  4:44         
   48     3:33:17 David Brown             Kanata       9/28  M35 - 39       76  11    67   40:43  2:03  8     34 1:36:13  35.2  14    66 1:16:23  5:06         
   49     3:33:22 Louis Laflamme          Ottawa      10/28  M35 - 39       70  12    93   43:17  2:10  12    55 1:40:01  33.9  6     32 1:10:05  4:41         
   50     3:33:40 Tricia Orzeck           Bramalea     2/16  W25 - 29       94  6     59   39:59  2:00  1     18 1:33:16  36.4  7     84 1:20:26  5:22         
   51     3:34:45 Eerik Randsalu          North York   2/2   M20 - 24      123  2    130   48:03  2:25  1     25 1:34:36  35.8  2     40 1:12:07  4:49         
   52     3:35:02 Cynthia Clark           Greely       3/16  W25 - 29      136  8     73   41:21  2:05  3     64 1:42:01  33.2  1     37 1:11:40  4:47         
   53     3:36:05 Doug Campbell           Niles       11/28  M35 - 39        4  10    66   40:35  2:02  11    50 1:39:32  34.1  13    63 1:15:59  5:04         
   54     3:36:53 Michael Bregman         Toronto      5/19  M45 - 49      177  3     23   36:34  1:50  5     52 1:39:48  34.0  6     85 1:20:31  5:23         
   55     3:37:30 Craig Hare              Hull        12/28  M35 - 39      178  8     50   39:23  1:59  17    78 1:43:24  32.8  11    59 1:14:44  4:59         
   56     3:39:11 Ian Joiner              Aylmer       9/22  M30 - 34       32  6     55   39:56  2:00  12    75 1:43:11  32.9  10    65 1:16:05  5:05         
   57     3:39:16 Lynda Magor             Markdale     3/13  W35 - 39      112  2     31   37:42  1:54  3     81 1:43:42  32.7  4     72 1:17:53  5:12         
   58     3:39:18 Deborah Powell          London       1/2   W20 - 24       78  1     52   39:42  2:00  1    100 1:46:13  31.9  1     52 1:13:24  4:54         
   59     3:40:02 Tim Dillon              Ottawa       6/19  M45 - 49       33  7     46   39:04  1:58  9     68 1:42:28  33.1  5     74 1:18:31  5:15         
   60     3:40:06 Beverley Wells          Ottawa       4/13  W35 - 39      141  4     89   42:33  2:08  2     76 1:43:15  32.8  3     57 1:14:19  4:58         
   61     3:40:59 Aron Weir               Guelph       7/12  M25 - 29       14  9    111   44:55  2:15  10    80 1:43:39  32.7  7     45 1:12:26  4:50         
   62     3:41:14 Ken Beswitherick        North Bay    1/4   M55 - 59        3  1     85   42:22  2:08  1     56 1:40:08  33.9  2     76 1:18:44  5:15         
   63     3:41:16 Christian Otto          Kingston    10/22  M30 - 34      169  17   125   47:03  2:22  6     31 1:35:53  35.4  11    73 1:18:21  5:14         
   64     3:41:27 Bill McIlroy            Kingston    13/28  M35 - 39       90  18   110   44:54  2:15  9     40 1:37:26  34.8  18    78 1:19:09  5:17         
   65     3:41:33 Taya Johnston           Richmond H   4/16  W25 - 29       77  2     26   37:21  1:53  9    130 1:51:55  30.3  2     42 1:12:19  4:50         
   66     3:42:34 Juergen Dingel          Kingston    14/28  M35 - 39      158  23   136   49:18  2:28  10    47 1:39:17  34.2  9     55 1:14:00  4:56         
   67     3:43:06 Simon Baron             Kingston    11/22  M30 - 34       37  8     65   40:34  2:02  11    67 1:42:20  33.1  14    81 1:20:13  5:21         
   68     3:43:10 Karl Riffert            Toronto     10/25  M40 - 44       95  15    92   42:58  2:09  10    49 1:39:29  34.1  14    86 1:20:44  5:23         
   69     3:43:19 Calvin Snow             Campbellvi   7/19  M45 - 49       73  10    57   39:57  2:00  8     65 1:42:08  33.2  7     89 1:21:14  5:25         
   70     3:43:46 Geoff Williams          Orleans      8/19  M45 - 49       56  12    82   41:53  2:06  6     59 1:40:39  33.7  8     90 1:21:15  5:25         
   71     3:43:50 Emily Sinclair          Kingston     5/16  W25 - 29      120  1     22   36:25  1:50  5    104 1:47:09  31.6  5     82 1:20:18  5:22         
   72     3:44:07 Mark Chandler           Toronto     11/25  M40 - 44       97  17    99   43:49  2:12  14    79 1:43:32  32.7  13    69 1:16:47  5:08         
   73     3:44:13 Bill Saunders           Carrying P   2/4   M55 - 59      113  3    117   45:51  2:18  2     69 1:42:30  33.1  1     62 1:15:53  5:04         
   74     3:44:48 Ross Bell               Elizabetht   9/19  M45 - 49       57  2     18   35:59  1:48  11    87 1:44:29  32.5  13   102 1:24:21  5:38         
   75     3:45:25 David Benwell           Santa Moni  12/25  M40 - 44       49  14    88   42:27  2:08  21   114 1:48:54  31.1  11    56 1:14:05  4:57         
   76     3:45:53 Tom Simper              Gloucester  10/19  M45 - 49       17  5     38   38:27  1:56  13    92 1:44:56  32.3  10    96 1:22:30  5:30         
   77     3:46:33 Kevin Hall              Kingston    11/19  M45 - 49      108  4     28   37:29  1:53  3     35 1:36:14  35.2  16   131 1:32:51  6:12         
   78     3:46:39 Bob Chiasson            Ottawa       1/6   M60 & Over     18  1     60   40:08  2:01  2     97 1:45:48  32.0  1     87 1:20:44  5:23         
   79     3:46:52 Claire Grasty           Gloucester   6/16  W25 - 29      155  9     76   41:32  2:05  4     91 1:44:56  32.3  6     83 1:20:25  5:22         
   80     3:46:59 Jim C. Malekos          Kingston    12/19  M45 - 49       91  8     48   39:21  1:59  10    85 1:44:02  32.6  11    98 1:23:37  5:35         
   81     3:47:02 Seamus Ryan             Kingston    13/25  M40 - 44       98  21   128   47:39  2:23  18   106 1:47:20  31.6  7     39 1:12:03  4:49         
   82     3:48:19 Scott Gavura            Toronto     12/22  M30 - 34       11  7     62   40:25  2:02  14    95 1:45:42  32.1  15    94 1:22:13  5:29         
   83     3:48:29 Alain Dube              Ottawa       8/12  M25 - 29       80  7     68   40:56  2:03  9     72 1:42:53  33.0  8    106 1:24:41  5:39         
   84     3:48:45 Deanna Solomon          Oakville     7/16  W25 - 29      121  12    96   43:28  2:11  8    127 1:51:22  30.4  4     54 1:13:56  4:56         
   85     3:48:45 Sarah Quintin-Beland    Sackville    1/11  W30 - 34       15  4     79   41:43  2:06  2    118 1:49:46  30.9  1     71 1:17:17  5:10         
   86     3:49:02 James Alexander         Kingston    14/25  M40 - 44      153  12    75   41:31  2:05  16   103 1:46:30  31.8  15    88 1:21:01  5:25         
   87     3:49:16 Carl Chenier            Ottawa      15/28  M35 - 39      160  16   107   44:44  2:15  16    73 1:42:54  32.9  20    92 1:21:39  5:27         
   88     3:49:32 Zoe Panchen             Ottawa       5/13  W35 - 39      147  5    123   46:43  2:21  4     83 1:43:49  32.7  5     77 1:19:00  5:16         
   89     3:49:38 Marc Champagne          Hull        15/25  M40 - 44      151  18   104   44:32  2:14  22   116 1:49:04  31.1  12    64 1:16:02  5:05         
   90     3:50:06 Fred Topham             Kingston    16/25  M40 - 44      130  19   119   46:19  2:19  9     46 1:39:10  34.2  17   105 1:24:38  5:39         
   91     3:50:18 Jon Riegle              Kitchener    9/12  M25 - 29       38  6     63   40:29  2:02  8     71 1:42:53  33.0  9    113 1:26:58  5:48         
   92     3:50:42 Peter Malon             Guelph      13/19  M45 - 49       53  14   100   43:52  2:12  12    90 1:44:53  32.3  9     93 1:21:58  5:28         
   93     3:50:55 Andre Tessier           Kingston    16/28  M35 - 39      148  21   118   46:07  2:19  21   110 1:48:15  31.3  15    67 1:16:34  5:07         
   94     3:50:59 Monica Labarge          Kingston     8/16  W25 - 29       93  3     34   37:54  1:54  6    115 1:49:02  31.1  8    101 1:24:04  5:37         
   95     3:51:00 Rick Branchaud          Nepean      14/19  M45 - 49       64  11    70   41:07  2:04  7     62 1:41:26  33.4  15   120 1:28:28  5:54         
   96 CLY 3:51:22 Scott Kapuscinski       Toronto     17/28  M35 - 39      103  13    95   43:22  2:11  5     19 1:33:53  36.1  24   140 1:34:07  6:17         
   97     3:51:42 Stephen Hanlon          Mississaug  18/28  M35 - 39      164  15   103   44:16  2:13  24   122 1:50:14  30.8  17    70 1:17:13  5:09         
   98 CLY 3:51:55 Eric Haanpaa            Ottawa      13/22  M30 - 34      163  11    83   41:56  2:06  13    77 1:43:16  32.8  17   112 1:26:44  5:47         
   99     3:52:04 Rick Baird              Ottawa      17/25  M40 - 44      135  11    74   41:26  2:05  15    98 1:46:05  32.0  16   104 1:24:34  5:39         
  100     3:52:19 Trent Dilkie            Bolton      18/25  M40 - 44      172  8     54   39:55  2:00  19   107 1:47:25  31.6  19   108 1:25:00  5:40         
  101     3:53:45 Rene Dionne             Ottawa      19/28  M35 - 39      107  26   149   51:38  2:35  20   101 1:46:30  31.8  12    61 1:15:38  5:03         
  102     3:53:49 Brian Edmond            Kanata      14/22  M30 - 34      156  18   129   48:00  2:24  19   125 1:50:47  30.6  9     60 1:15:03  5:01         
  103     3:54:27 Morris O'Callaghan      Ottawa       2/5   M50 - 54       23  2     45   38:58  1:57  3    124 1:50:28  30.7  2    110 1:25:02  5:41         
  104     3:54:47 Todd Stacey             Oshawa      20/28  M35 - 39       67  14    97   43:32  2:11  23   119 1:49:57  30.8  19    91 1:21:18  5:26         
  105     3:55:28 Michael Kuttas          Oakville     3/4   M55 - 59       69  2    109   44:47  2:15  3     70 1:42:40  33.0  3    115 1:28:02  5:53         
  106     3:56:17 Donna Lott              Carrying P   1/2   W40 - 44      119  1    122   46:36  2:20  1     93 1:45:10  32.2  1    103 1:24:31  5:39         
  107     3:56:32 Kevin O' Reilly         Oakville    19/25  M40 - 44       85  13    87   42:25  2:08  13    74 1:43:06  32.9  22   126 1:31:02  6:05         
  108     3:57:21 Zack Crafts             Parry Soun  15/22  M30 - 34       86  19   135   49:16  2:28  16   111 1:48:28  31.3  13    79 1:19:38  5:19         
  109     3:58:19 Colin Lacy              Toronto     16/22  M30 - 34       44  15   121   46:33  2:20  17   112 1:48:31  31.2  16    97 1:23:17  5:34         
  110     3:58:29 Brian Reeds             Lindsay     10/12  M25 - 29       43  8    102   43:58  2:12  6     48 1:39:18  34.1  10   142 1:35:13  6:21         
  111     3:58:51 Brian Shilton           London      21/28  M35 - 39        6  25   148   51:34  2:35  25   133 1:54:02  29.7  8     50 1:13:16  4:54         
  112     3:59:07 Paul Clarke             Toronto     17/22  M30 - 34      138  13    91   42:36  2:08  8     42 1:38:07  34.6  20   152 1:38:25  6:34         
  113     3:59:12 Chris Clarkson          Jamesville  22/28  M35 - 39       21  9     64   40:30  2:02  15    66 1:42:11  33.2  25   146 1:36:33  6:27         
  114     3:59:15 Joseph Shipley          Ottawa      23/28  M35 - 39       30  17   108   44:45  2:15  19    99 1:46:10  31.9  22   118 1:28:21  5:54         
  115     3:59:37 Curtis Monnier          Harrowsmit  18/22  M30 - 34       59  10    78   41:40  2:05  18   120 1:50:04  30.8  18   114 1:27:55  5:52         
  116     3:59:41 Joan Haysom             Ottawa       2/11  W30 - 34      114  5     81   41:45  2:06  1     82 1:43:43  32.7  8    141 1:34:13  6:17         
  117     4:02:01 Suzanne Dostaler        Kingston     1/4   W45 - 49       62  3    159   53:50  2:42  1     88 1:44:31  32.4  2     99 1:23:41  5:35         
  118     4:03:22 Graham McGee            Whitby      20/25  M40 - 44       46  16    94   43:20  2:10  12    61 1:41:21  33.5  23   153 1:38:42  6:35         
  119     4:03:35 Natalie Kennie          Toronto      3/11  W30 - 34      106  1     30   37:38  1:53  4    136 1:54:40  29.6  5    128 1:31:18  6:06         
  120     4:04:08 Wendy Redfern           Oakville     4/11  W30 - 34       74  6     98   43:48  2:12  5    139 1:55:21  29.4  2    109 1:25:01  5:41         
  121     4:04:29 Neil Mitchell           Unionville  24/28  M35 - 39      110  22   126   47:27  2:23  22   113 1:48:44  31.2  21   117 1:28:19  5:54         
  122     4:06:28 Heather Chew            Ottawa       5/11  W30 - 34      171  2     61   40:21  2:02  7    145 1:56:08  29.2  4    124 1:29:59  6:00         
  123     4:07:16 Jill Kapuscinski        Toronto      6/13  W35 - 39      101  6    127   47:29  2:23  6    126 1:51:03  30.5  7    121 1:28:45  5:55         
  124     4:07:18 Tracy Walsh             Toronto      7/13  W35 - 39       19  9    147   51:27  2:35  7    142 1:55:47  29.3  6     80 1:20:05  5:21         
  125     4:07:44 Andrew Plummer          Ottawa      19/22  M30 - 34       10  21   167   57:32  2:53  20   129 1:51:38  30.4  12    75 1:18:36  5:15         
  126     4:08:04 Heather White           Toronto      9/16  W25 - 29       31  10    80   41:44  2:06  7    123 1:50:20  30.7  13   145 1:36:00  6:24         
  127     4:08:28 Kyla Smith              Kingston     6/11  W30 - 34      145  8    133   48:44  2:27  3    132 1:53:44  29.8  3    111 1:26:01  5:45         
  128     4:10:15 Tamara Baldwin          Brockville   7/11  W30 - 34      152  3     72   41:19  2:04  6    140 1:55:23  29.4  7    134 1:33:35  6:15         
  129     4:10:29 Janice Snow             Campbellvi   2/4   W45 - 49       81  2    152   51:50  2:36  2    146 1:56:13  29.2  1     95 1:22:27  5:30         
  130     4:10:39 Caroline Stone          Ottawa      10/16  W25 - 29       83  11    84   42:20  2:07  10   135 1:54:30  29.6  12   136 1:33:49  6:16         
  131     4:10:46 Daniel Lapointe         Laval       15/19  M45 - 49       51  15   138   49:38  2:29  16   131 1:52:58  30.0  14   116 1:28:12  5:53         
  132 CLY 4:10:56 Denis Morel             Hartington  21/25  M40 - 44       55  23   160   54:53  2:45  20   108 1:47:41  31.5  20   119 1:28:24  5:54         
  133     4:11:07 Alec Ross               Kingston    22/25  M40 - 44       35  25   173   59:05  2:58  17   105 1:47:11  31.6  18   107 1:24:53  5:40         
  134 CLY 4:11:40 Maurice Gallagher       Westhill    23/25  M40 - 44       60  22   158   53:49  2:42  23   117 1:49:06  31.1  21   122 1:28:47  5:56         
  135     4:12:08 David Denison           Belleville  20/22  M30 - 34       58  20   157   53:29  2:41  15   109 1:47:55  31.4  19   125 1:30:45  6:03         
  136     4:16:52 Lindsay Dixon           Markham     11/16  W25 - 29      122  16   143   50:42  2:33  11   137 1:55:04  29.5  9    127 1:31:07  6:05         
  137     4:17:29 Tom Collins             London       2/6   M60 & Over      1  2    131   48:15  2:25  1     94 1:45:27  32.2  3    159 1:43:48  6:56         
  138     4:17:31 Kate Langstaff          London      12/16  W25 - 29      165  14   115   45:46  2:18  12   151 1:58:26  28.6  11   133 1:33:20  6:14         
  139     4:17:45 Julie Shelton           Milton      13/16  W25 - 29       68  5     51   39:42  2:00  14   153 1:59:53  28.3  14   151 1:38:11  6:33         
  140     4:20:24 Alexander Balaban       Ottawa      16/19  M45 - 49        8  18   165   56:09  2:49  17   156 2:00:16  28.2  12   100 1:24:01  5:36         
  141     4:20:40 Anna Morris             Milton       3/4   W45 - 49      166  1    105   44:38  2:14  3    150 1:58:24  28.6  4    150 1:37:39  6:31         
  142     4:21:44 Alan Dillabough         Amherstvie  21/22  M30 - 34      115  16   124   46:45  2:21  21   143 1:55:56  29.2  21   155 1:39:03  6:37         
  143     4:22:12 Dick Gunstone           Ottawa      25/28  M35 - 39       84  24   140   50:34  2:32  26   148 1:57:47  28.8  23   138 1:33:51  6:16         
  144     4:24:03 Lee-Anne Chase          St-Laurent  14/16  W25 - 29       29  15   132   48:42  2:27  16   163 2:02:35  27.7  10   130 1:32:46  6:12         
  145     4:24:14 Trevor Vowles           Kingston     3/5   M50 - 54      134  5    164   56:05  2:49  4    134 1:54:21  29.7  3    137 1:33:49  6:16         
  146     4:24:22 Kim Miroslavich         Brampton     8/11  W30 - 34       40  9    144   50:50  2:33  8    158 2:01:07  28.0  6    129 1:32:26  6:10         
  147     4:24:30 Annalisa Charron        Low          8/13  W35 - 39      104  11   172   58:17  2:55  8    147 1:57:10  28.9  8    123 1:29:04  5:57         
  148     4:25:56 Marg Beswitherick       North Bay    1/1   W55 - 59        5  1    141   50:37  2:32  1    159 2:01:18  28.0  1    139 1:34:02  6:17         
  149     4:27:15 Bruno Barrette          Lancaster   17/19  M45 - 49       71  17   161   54:58  2:45  15   102 1:46:30  31.8  18   162 1:45:48  7:04         
  150     4:27:39 Robert McCaldon         Hartington   3/6   M60 & Over     63  4    151   51:48  2:36  4    144 1:56:02  29.2  2    156 1:39:51  6:40         
  151 CLY 4:27:39 Patricia Massart        Nepean       9/13  W35 - 39       22  10   155   52:35  2:38  9    160 2:01:18  28.0  9    135 1:33:46  6:16         
  152     4:30:33 Terry Singleton         Oakville     4/4   M55 - 59      144  4    142   50:38  2:32  4    141 1:55:29  29.4  4    160 1:44:26  6:58         
  153     4:31:50 Katie Auger             Bolton       2/2   W20 - 24      139  2    139   50:10  2:31  2    169 2:08:32  26.4  2    132 1:33:09  6:13         
  154 CLY 4:31:51 Sarah Johnston          Toronto     15/16  W25 - 29       89  13   106   44:39  2:14  15   155 2:00:04  28.2  15   164 1:47:09  7:09         
  155     4:33:02 Andrew Simone           Toronto      4/6   M60 & Over     87  3    150   51:39  2:35  3    128 1:51:33  30.4  4    165 1:49:51  7:20         
  156     4:33:45 Clarke Leblanc          Toronto     26/28  M35 - 39      105  28   171   58:06  2:55  27   149 1:58:22  28.6  26   148 1:37:18  6:30         
  157     4:33:50 Jocelyn Lavoie          Ottawa      16/16  W25 - 29      150  7     69   41:00  2:03  13   152 1:59:23  28.4  16   168 1:53:29  7:34         
  158     4:36:17 Scott McGhee            Toronto     11/12  M25 - 29      126  12   168   57:34  2:53  11   138 1:55:08  29.4  11   158 1:43:36  6:55         
  159     4:40:31 Diane Creber            Odessa       1/2   W60 & Over    142  1    162   55:01  2:46  2    175 2:11:54  25.7  1    143 1:35:32  6:23    1:55 
  160     4:41:31 Sandra Godard           Toronto      4/4   W45 - 49       25  4    177 1:04:51  3:15  4    161 2:01:54  27.8  3    149 1:37:33  6:31    2:46 
  161     4:43:24 James Wing              Kingston    18/19  M45 - 49      140  19   169   57:37  2:53  18   171 2:09:12  26.2  17   147 1:36:59  6:28    0:24 
  162     4:44:22 Lesley Taylor           Toronto     10/13  W35 - 39       24  8    146   51:20  2:34  11   167 2:07:59  26.5  13   161 1:45:04  7:01         
  163     4:47:31 Heather MacDonald       Rr#3 Odess  11/13  W35 - 39       12  7    145   51:01  2:34  13   177 2:17:28  24.7  11   154 1:39:03  6:37         
  164     4:50:41 Barbara Routliffe       Ottawa       9/11  W30 - 34      173  10   174 1:01:30  3:05  10   165 2:05:28  27.0  9    163 1:46:39  7:07    2:56 
  165     4:52:11 Dale Costello           Ottawa      12/12  M25 - 29       88  11   163   55:38  2:47  12   154 2:00:03  28.2  12   169 1:56:31  7:47         
  166     4:52:34 Gillian Johnston        Toronto     12/13  W35 - 39      188  13   181 1:08:18  3:25  10   162 2:02:27  27.7  12   157 1:41:50  6:48         
  167     4:53:33 Andreina Di Labio       Ottawa      13/13  W35 - 39      167  12   180 1:06:48  3:21  12   173 2:11:10  25.8  10   144 1:35:35  6:23         
  168 CLY 4:54:07 David Caldwell          Ottawa      24/25  M40 - 44       16  20   120   46:27  2:20  24   172 2:10:21  26.0  25   171 1:57:19  7:50         
  169     4:57:28 Demetria Tsoutouras     Ottawa      10/11  W30 - 34      168  11   175 1:03:28  3:11  9    164 2:03:22  27.5  10   166 1:51:54  7:28    1:14 
  170     5:00:13 Murray Sinclair         Vancouver   25/25  M40 - 44      185  24   166   56:22  2:50  25   174 2:11:51  25.7  24   167 1:52:01  7:29         
  171     5:10:59 David Maskell           Hartington   5/6   M60 & Over     54  5    154   52:24  2:38  5    168 2:08:06  26.5  5    173 2:10:31  8:43         
  172     5:11:23 Shirley Riffert         Toronto      2/2   W40 - 44      100  2    179 1:05:14  3:16  2    170 2:09:01  26.3  2    170 1:57:09  7:49         
  173     5:17:03 Jane McCaldon           Hartington   2/2   W60 & Over     61  2    176 1:04:40  3:14  1    166 2:07:39  26.6  2    172 2:04:46  8:19         
  174     5:33:32 Mark Spies              Jasper      22/22  M30 - 34       41  22   170   57:43  2:54  22   178 2:20:45  24.1  22   174 2:15:04  9:01         
  175     5:43:02 Max Shafir              Toronto      6/6   M60 & Over    189  6    178 1:05:07  3:16  6    176 2:13:48  25.3  6    175 2:24:08  9:37         
  176 DNF         Ian Mosher              Kingston    27/28  M35 - 39      184  20   116   45:49  2:18  14    63 1:42:01  33.2                                 
  177 DNF         Roger Mills             Ottawa       4/5   M50 - 54       48  3    134   48:51  2:27  2    121 1:50:04  30.8                                 
  178 DNF         Brian Hinton            Markham     28/28  M35 - 39      161  27   153   52:10  2:37  28   157 2:00:26  28.2                                 
  179 DNF         Bob Bean                London       5/5   M50 - 54      186  4    137   49:21  2:29  5    179 2:43:11  20.8                                 
  180 DNF         Jennifer Holmes         Ottawa      11/11  W30 - 34      162  7    101   43:54  2:12                                                         
  181 DNF         Mark Hurtig             Rockwood    19/19  M45 - 49      159  16   156   52:59  2:39